Time;durP1;ratioP1;P1;durP2;ratioP2;P2;SDS_P1;SDS_P2;PMS_P1;PMS_P2;Temp;Humidity;BMP_temperature;BMP_pressure;BME280_temperature;BME280_humidity;BME280_pressure;Samples;Min_cycle;Max_cycle;Signal;HPM_P1;HPM_P2
2023/09/29 00:02:03;;;;;;;;;;;;;;;14.34;82.79;101046.89;108198;275;121410;-60
2023/09/29 00:04:40;;;;;;;;;;;;;;;14.32;82.80;101044.64;108105;275;105799;-60
2023/09/29 00:07:12;;;;;;;;;;;;;;;14.30;82.93;101045.48;107721;275;113021;-56
2023/09/29 00:09:46;;;;;;;;;;;;;;;14.28;83.05;101044.10;107645;275;96015;-56
2023/09/29 00:12:23;;;;;;;;;;;;;;;14.26;83.15;101048.66;108176;275;97598;-59
2023/09/29 00:15:03;;;;;;;;;;;;;;;14.25;83.33;101048.52;108161;275;121007;-60
2023/09/29 00:17:34;;;;;;;;;;;;;;;14.26;83.56;101045.09;108107;275;103289;-60
2023/09/29 00:20:17;;;;;;;;;;;;;;;14.27;83.56;101046.20;108239;275;114804;-58
2023/09/29 00:22:54;;;;;;;;;;;;;;;14.28;83.57;101044.67;108263;275;97276;-59
2023/09/29 00:25:30;;;;;;;;;;;;;;;14.25;83.66;101043.55;108078;275;97405;-59
2023/09/29 00:28:06;;;;;;;;;;;;;;;14.21;83.55;101040.27;108229;275;119909;-59
2023/09/29 00:30:42;;;;;;;;;;;;;;;14.19;83.65;101040.48;108080;275;105790;-57
2023/09/29 00:33:17;;;;;;;;;;;;;;;14.16;83.72;101042.37;107655;275;113714;-57
2023/09/29 00:35:51;;;;;;;;;;;;;;;14.11;83.85;101039.85;107783;275;96615;-59
2023/09/29 00:38:29;;;;;;;;;;;;;;;14.09;83.93;101040.52;108222;275;96542;-58
2023/09/29 00:41:03;;;;;;;;;;;;;;;14.07;83.77;101039.91;108025;275;120124;-57
2023/09/29 00:43:36;;;;;;;;;;;;;;;14.05;83.80;101035.26;107681;275;104986;-57
2023/09/29 00:46:12;;;;;;;;;;;;;;;14.00;83.81;101036.30;107647;275;114761;-55
2023/09/29 00:48:49;;;;;;;;;;;;;;;13.95;83.93;101035.30;107667;275;96973;-57
2023/09/29 00:51:26;;;;;;;;;;;;;;;13.91;83.94;101035.97;108094;275;97148;-59
2023/09/29 00:54:06;;;;;;;;;;;;;;;13.85;84.12;101037.29;108271;275;119544;-59
2023/09/29 00:56:39;;;;;;;;;;;;;;;13.82;84.06;101034.88;107811;275;104640;-55
2023/09/29 00:59:15;;;;;;;;;;;;;;;13.74;84.12;101036.96;107673;275;115051;-54
2023/09/29 01:01:53;;;;;;;;;;;;;;;13.69;84.22;101037.84;107709;275;95994;-57
2023/09/29 01:04:26;;;;;;;;;;;;;;;13.64;84.24;101041.89;107689;275;97999;-55
2023/09/29 01:07:04;;;;;;;;;;;;;;;13.65;84.36;101042.14;107999;275;119684;-60
2023/09/29 01:09:40;;;;;;;;;;;;;;;13.67;84.45;101038.73;108101;275;103543;-59
2023/09/29 01:12:25;;;;;;;;;;;;;;;13.68;84.61;101036.66;107758;275;114860;-54
2023/09/29 01:14:57;;;;;;;;;;;;;;;13.69;84.82;101036.96;107679;275;97242;-54
2023/09/29 01:17:31;;;;;;;;;;;;;;;13.72;84.82;101037.13;107684;275;97491;-58
2023/09/29 01:20:16;;;;;;;;;;;;;;;13.73;84.91;101037.21;107693;275;120083;-56
2023/09/29 01:22:55;;;;;;;;;;;;;;;13.74;85.19;101031.75;108297;275;104258;-59
2023/09/29 01:25:30;;;;;;;;;;;;;;;13.74;85.09;101029.83;108186;275;113307;-57
2023/09/29 01:28:05;;;;;;;;;;;;;;;13.78;85.28;101025.56;107655;275;94824;-56
2023/09/29 01:30:43;;;;;;;;;;;;;;;13.83;85.48;101024.19;107462;275;99527;-58
2023/09/29 01:33:17;;;;;;;;;;;;;;;13.85;85.68;101021.73;107630;275;121589;-57
2023/09/29 01:35:51;;;;;;;;;;;;;;;13.92;85.85;101017.77;107782;275;106556;-59
2023/09/29 01:38:25;;;;;;;;;;;;;;;13.94;86.06;101016.94;108045;275;113632;-59
2023/09/29 01:41:01;;;;;;;;;;;;;;;13.96;86.01;101013.98;107955;275;95521;-58
2023/09/29 01:43:36;;;;;;;;;;;;;;;13.99;86.17;101014.13;107626;275;97769;-59
2023/09/29 01:46:15;;;;;;;;;;;;;;;14.00;86.19;101008.16;107698;275;119857;-58
2023/09/29 01:48:52;;;;;;;;;;;;;;;13.98;86.22;101006.98;107654;275;105464;-57
2023/09/29 01:51:30;;;;;;;;;;;;;;;13.99;86.20;101006.11;107922;275;112345;-59
2023/09/29 01:54:10;;;;;;;;;;;;;;;13.99;86.28;101005.61;108176;275;95700;-59
2023/09/29 01:56:51;;;;;;;;;;;;;;;14.04;86.23;101004.07;107807;275;98273;-55
2023/09/29 01:59:23;;;;;;;;;;;;;;;14.04;86.29;101010.41;107620;275;121323;-54
2023/09/29 02:02:00;;;;;;;;;;;;;;;14.02;86.25;101013.23;108478;275;105552;-59
2023/09/29 02:04:46;;;;;;;;;;;;;;;13.99;86.43;101013.55;108719;275;113553;-59
2023/09/29 02:07:20;;;;;;;;;;;;;;;13.97;86.38;101008.94;107717;275;95868;-56
2023/09/29 02:09:55;;;;;;;;;;;;;;;13.95;86.38;101008.25;107693;275;96939;-57
2023/09/29 02:12:30;;;;;;;;;;;;;;;13.94;86.52;101009.36;107684;275;118749;-57
2023/09/29 02:15:07;;;;;;;;;;;;;;;13.89;86.54;101012.67;107683;275;106586;-57
2023/09/29 02:17:38;;;;;;;;;;;;;;;13.89;86.48;101012.38;107679;275;115142;-58
2023/09/29 02:20:17;;;;;;;;;;;;;;;13.93;86.64;101007.73;107719;275;97519;-59
2023/09/29 02:22:56;;;;;;;;;;;;;;;13.97;87.08;101008.21;108452;275;96899;-59
2023/09/29 02:25:30;;;;;;;;;;;;;;;14.00;87.02;101008.79;108499;275;119580;-55
2023/09/29 02:28:03;;;;;;;;;;;;;;;14.03;87.18;101004.60;107663;275;105249;-56
2023/09/29 02:30:39;;;;;;;;;;;;;;;14.08;87.33;101004.34;107670;275;113573;-55
2023/09/29 02:33:11;;;;;;;;;;;;;;;14.10;87.38;101003.44;107645;275;95995;-55
2023/09/29 02:35:42;;;;;;;;;;;;;;;14.10;87.26;101005.55;107675;275;98038;-56
2023/09/29 02:38:13;;;;;;;;;;;;;;;14.08;87.14;101004.05;107703;275;120635;-56
2023/09/29 02:40:50;;;;;;;;;;;;;;;14.06;87.37;101007.50;107717;275;104750;-55
2023/09/29 02:43:27;;;;;;;;;;;;;;;14.07;87.31;101008.21;107672;275;114646;-54
2023/09/29 02:46:03;;;;;;;;;;;;;;;14.04;87.25;101011.46;108024;275;96727;-59
2023/09/29 02:48:41;;;;;;;;;;;;;;;13.98;87.05;101008.27;108575;275;96939;-60
2023/09/29 02:51:23;;;;;;;;;;;;;;;13.89;87.00;101007.79;108251;275;118372;-56
2023/09/29 02:53:57;;;;;;;;;;;;;;;13.80;86.87;101001.36;107671;275;105940;-56
2023/09/29 02:56:32;;;;;;;;;;;;;;;13.71;86.79;101004.33;107665;275;114186;-54
2023/09/29 02:59:07;;;;;;;;;;;;;;;13.66;86.85;100999.05;107704;275;96498;-55
2023/09/29 03:01:47;;;;;;;;;;;;;;;13.58;86.72;101007.21;107702;275;97997;-55
2023/09/29 03:04:27;;;;;;;;;;;;;;;13.52;86.65;101005.86;107631;275;121597;-55
2023/09/29 03:06:59;;;;;;;;;;;;;;;13.47;86.89;101010.90;107680;275;104612;-55
2023/09/29 03:09:33;;;;;;;;;;;;;;;13.43;86.78;101012.13;107643;275;115883;-54
2023/09/29 03:12:07;;;;;;;;;;;;;;;13.38;86.95;101014.48;108260;275;97180;-59
2023/09/29 03:14:45;;;;;;;;;;;;;;;13.33;86.95;101010.58;107972;275;97254;-59
2023/09/29 03:17:24;;;;;;;;;;;;;;;13.28;87.04;101010.64;107689;275;121031;-57
2023/09/29 03:19:59;;;;;;;;;;;;;;;13.24;86.90;101005.64;107633;275;105804;-58
2023/09/29 03:22:38;;;;;;;;;;;;;;;13.17;87.02;101006.15;108271;275;115654;-59
2023/09/29 03:25:16;;;;;;;;;;;;;;;13.14;87.03;101007.31;108454;275;96350;-57
2023/09/29 03:27:54;;;;;;;;;;;;;;;13.11;87.21;101006.77;107666;275;97550;-57
2023/09/29 03:30:34;;;;;;;;;;;;;;;13.13;87.33;101010.52;107618;275;120472;-55
2023/09/29 03:33:13;;;;;;;;;;;;;;;13.15;87.52;101008.38;107665;275;105222;-54
2023/09/29 03:35:47;;;;;;;;;;;;;;;13.22;87.81;101007.65;107826;275;114522;-59
2023/09/29 03:38:21;;;;;;;;;;;;;;;13.28;88.20;101008.59;108062;275;96255;-59
2023/09/29 03:41:06;;;;;;;;;;;;;;;13.35;88.36;101002.96;108211;275;97147;-59
2023/09/29 03:43:46;;;;;;;;;;;;;;;13.44;88.54;101001.33;107881;275;119088;-59
2023/09/29 03:46:22;;;;;;;;;;;;;;;13.49;88.77;100998.09;107954;275;104192;-60
2023/09/29 03:48:57;;;;;;;;;;;;;;;13.53;88.77;100993.25;108308;275;114646;-59
2023/09/29 03:51:30;;;;;;;;;;;;;;;13.54;88.83;100992.17;107765;271;97630;-57
2023/09/29 03:54:03;;;;;;;;;;;;;;;13.64;89.08;100987.79;107662;275;95812;-58
2023/09/29 03:56:39;;;;;;;;;;;;;;;13.69;89.41;100988.88;108090;275;121793;-59
2023/09/29 03:59:13;;;;;;;;;;;;;;;13.74;89.38;100987.13;107759;275;549439;-59
2023/09/29 04:01:45;;;;;;;;;;;;;;;13.75;89.26;100984.91;107836;275;112959;-55
2023/09/29 04:04:22;;;;;;;;;;;;;;;13.78;89.49;100984.84;107654;275;96653;-56
2023/09/29 04:07:07;;;;;;;;;;;;;;;13.78;89.38;100990.47;107752;275;98184;-53
2023/09/29 04:09:49;;;;;;;;;;;;;;;13.76;89.34;100984.91;107739;275;120919;-55
2023/09/29 04:12:26;;;;;;;;;;;;;;;13.79;89.47;100988.30;107674;275;105635;-54
2023/09/29 04:15:01;;;;;;;;;;;;;;;13.81;89.51;100983.69;107657;275;114022;-54
2023/09/29 04:17:36;;;;;;;;;;;;;;;13.81;89.57;100983.94;107663;275;97025;-57
2023/09/29 04:20:09;;;;;;;;;;;;;;;13.79;89.52;100982.30;107628;275;97736;-56
2023/09/29 04:22:41;;;;;;;;;;;;;;;13.77;89.57;100978.93;107607;275;121347;-55
2023/09/29 04:25:18;;;;;;;;;;;;;;;13.81;89.88;100984.27;107679;275;105419;-55
2023/09/29 04:27:50;;;;;;;;;;;;;;;13.83;89.73;100984.00;107660;275;113643;-53
2023/09/29 04:30:28;;;;;;;;;;;;;;;13.82;89.66;100980.02;107704;275;97245;-55
2023/09/29 04:33:07;;;;;;;;;;;;;;;13.84;89.71;100981.91;107478;275;97192;-56
2023/09/29 04:35:45;;;;;;;;;;;;;;;13.86;89.89;100977.71;107642;275;120295;-58
2023/09/29 04:38:27;;;;;;;;;;;;;;;13.85;89.81;100979.37;107674;275;106205;-57
2023/09/29 04:41:04;;;;;;;;;;;;;;;13.89;89.78;100979.96;107777;275;114959;-58
2023/09/29 04:43:39;;;;;;;;;;;;;;;13.89;89.80;100980.13;108109;275;95163;-59
2023/09/29 04:46:19;;;;;;;;;;;;;;;13.87;89.78;100977.19;107832;275;95381;-55
2023/09/29 04:48:54;;;;;;;;;;;;;;;13.87;90.00;100983.86;107696;275;121123;-56
2023/09/29 04:51:28;;;;;;;;;;;;;;;13.88;89.77;100983.04;107745;275;105455;-58
2023/09/29 04:54:04;;;;;;;;;;;;;;;13.89;89.68;100983.39;107703;275;112846;-59
2023/09/29 04:56:36;;;;;;;;;;;;;;;13.95;89.69;100984.27;107976;275;95042;-59
2023/09/29 04:59:13;;;;;;;;;;;;;;;14.02;89.91;100983.82;108028;275;97832;-59
2023/09/29 05:01:46;;;;;;;;;;;;;;;14.01;89.51;100977.63;107803;275;118789;-56
2023/09/29 05:04:21;;;;;;;;;;;;;;;14.01;89.59;100984.30;107673;275;104284;-55
2023/09/29 05:06:57;;;;;;;;;;;;;;;14.06;89.47;100985.70;107690;275;113613;-52
2023/09/29 05:09:29;;;;;;;;;;;;;;;14.09;89.58;100986.01;107689;275;95433;-54
2023/09/29 05:12:04;;;;;;;;;;;;;;;14.11;89.53;100984.64;107969;275;96026;-59
2023/09/29 05:14:44;;;;;;;;;;;;;;;14.19;89.60;100982.90;108050;275;119024;-59
2023/09/29 05:17:17;;;;;;;;;;;;;;;14.27;89.37;100986.30;107740;275;104598;-55
2023/09/29 05:19:52;;;;;;;;;;;;;;;14.31;89.41;100987.30;107647;275;114530;-53
2023/09/29 05:22:22;;;;;;;;;;;;;;;14.40;89.49;100986.53;107636;275;97193;-58
2023/09/29 05:24:54;;;;;;;;;;;;;;;14.48;89.34;100985.11;107482;275;97338;-57
2023/09/29 05:27:32;;;;;;;;;;;;;;;14.56;89.26;100983.48;107684;275;119589;-56
2023/09/29 05:30:06;;;;;;;;;;;;;;;14.63;89.25;100983.62;107670;275;104283;-56
2023/09/29 05:32:45;;;;;;;;;;;;;;;14.73;89.23;100983.42;107673;275;111914;-54
2023/09/29 05:35:22;;;;;;;;;;;;;;;15.39;89.36;100985.36;107611;275;96381;-57
2023/09/29 05:38:00;;;;;;;;;;;;;;;16.22;88.83;100988.35;107514;275;96757;-56
2023/09/29 05:40:32;;;;;;;;;;;;;;;16.99;87.36;100989.08;107643;275;120742;-58
2023/09/29 05:43:13;;;;;;;;;;;;;;;17.79;85.57;100984.85;107764;275;105987;-64
2023/09/29 05:45:48;;;;;;;;;;;;;;;17.89;84.55;100980.57;107695;275;113853;-55
2023/09/29 05:48:22;;;;;;;;;;;;;;;17.69;84.40;100988.77;107666;275;93824;-55
2023/09/29 05:50:52;;;;;;;;;;;;;;;17.52;84.74;100989.61;107702;275;96235;-54
2023/09/29 05:53:26;;;;;;;;;;;;;;;17.43;84.26;100992.52;107658;275;118209;-57
2023/09/29 05:56:08;;;;;;;;;;;;;;;17.41;84.20;100995.27;107675;275;106027;-54
2023/09/29 05:58:41;;;;;;;;;;;;;;;17.50;84.27;100993.02;107661;275;115735;-54
2023/09/29 06:01:17;;;;;;;;;;;;;;;17.51;83.86;100994.92;107670;275;94894;-54
2023/09/29 06:03:59;;;;;;;;;;;;;;;17.43;83.61;100996.00;107687;275;96504;-55
2023/09/29 06:06:33;;;;;;;;;;;;;;;17.45;83.52;100996.63;107724;275;120851;-60
2023/09/29 06:09:07;;;;;;;;;;;;;;;17.39;83.36;100995.91;107662;275;105199;-58
2023/09/29 06:11:41;;;;;;;;;;;;;;;17.45;83.26;100997.92;107658;275;114601;-55
2023/09/29 06:14:17;;;;;;;;;;;;;;;17.41;83.27;100998.20;107659;275;93674;-55
2023/09/29 06:16:57;;;;;;;;;;;;;;;17.36;83.12;100997.23;107703;275;97210;-57
2023/09/29 06:19:29;;;;;;;;;;;;;;;17.33;82.97;100998.27;107658;275;120006;-57
2023/09/29 06:22:04;;;;;;;;;;;;;;;17.34;82.89;100998.29;107709;275;105479;-55
2023/09/29 06:24:35;;;;;;;;;;;;;;;17.44;82.91;100997.02;107632;275;114532;-55
2023/09/29 06:27:11;;;;;;;;;;;;;;;17.50;82.67;100997.98;107859;275;95306;-60
2023/09/29 06:29:53;;;;;;;;;;;;;;;17.56;82.63;100993.85;107964;275;96777;-59
2023/09/29 06:32:30;;;;;;;;;;;;;;;17.65;82.50;100994.71;107718;275;120566;-57
2023/09/29 06:35:04;;;;;;;;;;;;;;;17.79;82.12;100990.66;107708;275;105316;-59
2023/09/29 06:37:35;;;;;;;;;;;;;;;17.88;82.13;100993.11;107569;275;113287;-58
2023/09/29 06:40:13;;;;;;;;;;;;;;;17.98;81.85;100992.36;107678;275;95533;-56
2023/09/29 06:42:47;;;;;;;;;;;;;;;18.11;81.77;100990.27;107706;275;97807;-58
2023/09/29 06:45:20;;;;;;;;;;;;;;;18.23;81.66;100993.65;107696;275;119183;-58
2023/09/29 06:47:58;;;;;;;;;;;;;;;18.38;81.32;100997.34;107449;275;105775;-59
2023/09/29 06:50:33;;;;;;;;;;;;;;;18.49;81.16;100994.22;107656;275;115989;-58
2023/09/29 06:53:07;;;;;;;;;;;;;;;18.58;80.85;100995.02;107689;275;92132;-58
2023/09/29 06:55:43;;;;;;;;;;;;;;;18.66;80.84;100997.73;107748;275;97797;-58
2023/09/29 06:58:15;;;;;;;;;;;;;;;18.73;80.75;101000.69;107711;275;119818;-58
2023/09/29 07:00:52;;;;;;;;;;;;;;;18.81;80.76;101001.02;107493;275;107258;-59
2023/09/29 07:03:29;;;;;;;;;;;;;;;18.89;80.48;101004.58;107701;275;114241;-59
2023/09/29 07:06:05;;;;;;;;;;;;;;;18.98;80.40;100997.87;107609;275;94833;-58
2023/09/29 07:08:36;;;;;;;;;;;;;;;19.06;80.01;100999.28;107692;275;96682;-58
2023/09/29 07:11:07;;;;;;;;;;;;;;;19.12;80.00;101001.56;107495;275;122800;-57
2023/09/29 07:13:42;;;;;;;;;;;;;;;19.24;79.96;101001.23;107706;275;106030;-59
2023/09/29 07:16:17;;;;;;;;;;;;;;;19.36;79.71;101002.84;107639;275;113892;-58
2023/09/29 07:19:11;;;;;;;;;;;;;;;19.51;79.59;100998.48;107645;275;93833;-57
2023/09/29 07:22:00;;;;;;;;;;;;;;;19.65;79.13;100997.98;107489;275;97203;-59
2023/09/29 07:24:36;;;;;;;;;;;;;;;19.76;78.59;100996.38;107515;275;122926;-58
2023/09/29 07:27:08;;;;;;;;;;;;;;;19.85;78.48;100993.81;107664;275;105343;-58
2023/09/29 07:29:38;;;;;;;;;;;;;;;20.00;78.30;100994.24;107675;275;113386;-59
2023/09/29 07:32:15;;;;;;;;;;;;;;;20.16;78.11;100995.17;107583;275;93995;-58
2023/09/29 07:34:52;;;;;;;;;;;;;;;20.36;77.74;100995.80;107648;275;97309;-58
2023/09/29 07:37:28;;;;;;;;;;;;;;;20.51;77.34;101003.84;107470;275;119029;-56
2023/09/29 07:40:02;;;;;;;;;;;;;;;20.83;77.46;101005.71;107492;275;107001;-58
2023/09/29 07:42:38;;;;;;;;;;;;;;;21.73;76.80;101002.35;107609;275;115772;-59
2023/09/29 07:45:13;;;;;;;;;;;;;;;22.75;74.49;100998.86;107661;275;98259;-59
2023/09/29 07:47:44;;;;;;;;;;;;;;;23.28;73.81;100994.15;107696;275;97493;-58
2023/09/29 07:50:15;;;;;;;;;;;;;;;23.88;72.83;100990.81;107642;275;120344;-58
2023/09/29 07:52:49;;;;;;;;;;;;;;;24.59;71.93;100986.79;107694;275;103969;-58
2023/09/29 07:55:23;;;;;;;;;;;;;;;25.44;70.02;100987.55;107706;275;114805;-60
2023/09/29 07:57:53;;;;;;;;;;;;;;;26.97;68.81;100983.11;107728;276;94651;-59
2023/09/29 08:00:26;;;;;;;;;;;;;;;28.36;66.43;100978.65;107684;277;98504;-58
2023/09/29 08:02:58;;;;;;;;;;;;;;;29.69;63.89;100980.59;107707;276;119818;-59
2023/09/29 08:05:33;;;;;;;;;;;;;;;30.74;61.51;100976.77;107501;275;106204;-57
2023/09/29 08:08:06;;;;;;;;;;;;;;;31.60;59.57;100973.95;107671;275;113938;-56
2023/09/29 08:10:40;;;;;;;;;;;;;;;31.85;57.89;100973.55;107682;275;94241;-59
2023/09/29 08:13:17;;;;;;;;;;;;;;;31.77;56.35;100978.19;107755;275;97912;-58
2023/09/29 08:15:51;;;;;;;;;;;;;;;31.47;54.73;100975.35;107652;275;120994;-55
2023/09/29 08:18:23;;;;;;;;;;;;;;;30.74;54.22;100974.89;107648;275;105476;-55
2023/09/29 08:20:58;;;;;;;;;;;;;;;30.10;53.29;100981.52;107701;275;115014;-58
2023/09/29 08:23:32;;;;;;;;;;;;;;;29.45;53.54;100982.62;107664;275;94294;-58
2023/09/29 08:26:05;;;;;;;;;;;;;;;29.09;53.62;100981.36;107706;275;98283;-54
2023/09/29 08:28:37;;;;;;;;;;;;;;;29.29;53.70;100979.77;107676;275;120128;-55
2023/09/29 08:31:17;;;;;;;;;;;;;;;29.70;53.38;100982.64;107641;275;105740;-57
2023/09/29 08:33:51;;;;;;;;;;;;;;;29.44;52.81;100982.03;107691;275;115017;-57
2023/09/29 08:36:22;;;;;;;;;;;;;;;29.05;52.59;100980.09;107683;275;93628;-59
2023/09/29 08:38:58;;;;;;;;;;;;;;;28.73;51.89;100981.30;107712;275;96951;-58
2023/09/29 08:41:35;;;;;;;;;;;;;;;28.84;52.42;100981.29;107741;275;120442;-60
2023/09/29 08:44:13;;;;;;;;;;;;;;;29.33;51.89;100981.80;107728;275;104107;-59
2023/09/29 08:46:55;;;;;;;;;;;;;;;29.20;51.12;100980.84;107646;275;114453;-58
2023/09/29 08:49:31;;;;;;;;;;;;;;;28.71;50.86;100979.92;107685;275;93916;-58
2023/09/29 08:52:09;;;;;;;;;;;;;;;28.27;51.02;100977.64;107673;275;98032;-56
2023/09/29 08:54:45;;;;;;;;;;;;;;;27.91;51.16;100978.34;107714;275;119842;-57
2023/09/29 08:57:20;;;;;;;;;;;;;;;27.60;51.55;100978.51;107714;275;105069;-58
2023/09/29 08:59:52;;;;;;;;;;;;;;;27.32;51.80;100982.48;107706;275;115063;-58
2023/09/29 09:02:26;;;;;;;;;;;;;;;27.08;51.88;100976.73;107665;275;93474;-58
2023/09/29 09:04:57;;;;;;;;;;;;;;;26.91;52.14;100978.00;107674;275;97608;-59
2023/09/29 09:07:35;;;;;;;;;;;;;;;26.81;52.71;100976.94;107739;275;119816;-60
2023/09/29 09:10:12;;;;;;;;;;;;;;;26.73;52.78;100971.45;107700;275;105156;-56
2023/09/29 09:12:46;;;;;;;;;;;;;;;26.81;53.03;100970.93;107691;275;114469;-56
2023/09/29 09:15:27;;;;;;;;;;;;;;;27.21;53.09;100971.38;107669;275;94677;-57
2023/09/29 09:18:03;;;;;;;;;;;;;;;27.80;52.65;100965.41;107642;275;95609;-56
2023/09/29 09:20:36;;;;;;;;;;;;;;;28.58;51.68;100959.81;107636;275;120689;-57
2023/09/29 09:23:11;;;;;;;;;;;;;;;29.26;50.98;100960.61;107659;275;105391;-56
2023/09/29 09:25:44;;;;;;;;;;;;;;;29.98;50.41;100959.04;107677;275;114370;-56
2023/09/29 09:28:22;;;;;;;;;;;;;;;30.63;48.81;100955.29;107674;275;93970;-55
2023/09/29 09:31:02;;;;;;;;;;;;;;;30.99;48.30;100955.02;107719;275;97495;-58
2023/09/29 09:33:43;;;;;;;;;;;;;;;31.30;46.91;100953.34;107647;275;121627;-57
2023/09/29 09:36:26;;;;;;;;;;;;;;;31.47;46.51;100953.58;107696;275;105022;-55
2023/09/29 09:39:11;;;;;;;;;;;;;;;31.38;45.47;100949.30;107681;275;115946;-55
2023/09/29 09:41:54;;;;;;;;;;;;;;;30.99;44.72;100952.40;107668;275;95057;-57
2023/09/29 09:44:26;;;;;;;;;;;;;;;30.43;44.88;100953.23;107689;275;97932;-56
2023/09/29 09:47:00;;;;;;;;;;;;;;;30.09;45.05;100954.89;107725;275;120072;-56
2023/09/29 09:49:47;;;;;;;;;;;;;;;29.65;45.42;100951.47;107731;275;105409;-57
2023/09/29 09:52:27;;;;;;;;;;;;;;;29.37;45.79;100951.45;107500;275;117241;-54
2023/09/29 09:55:12;;;;;;;;;;;;;;;29.09;45.74;100949.31;107649;275;94566;-54
2023/09/29 09:57:46;;;;;;;;;;;;;;;28.82;45.79;100949.16;107707;275;96394;-57
2023/09/29 10:00:26;;;;;;;;;;;;;;;28.60;45.95;100945.57;107672;275;120679;-60
2023/09/29 10:03:11;;;;;;;;;;;;;;;28.41;45.47;100939.26;107731;275;104272;-60
2023/09/29 10:05:52;;;;;;;;;;;;;;;28.21;45.77;100939.58;107653;275;114497;-56
2023/09/29 10:08:30;;;;;;;;;;;;;;;28.03;45.80;100942.95;107667;275;93225;-57
2023/09/29 10:11:16;;;;;;;;;;;;;;;27.85;46.12;100939.88;107705;275;97762;-57
2023/09/29 10:14:00;;;;;;;;;;;;;;;27.77;46.49;100936.52;107689;275;121218;-58
2023/09/29 10:16:36;;;;;;;;;;;;;;;27.71;46.32;100933.71;107669;275;105966;-55
2023/09/29 10:19:12;;;;;;;;;;;;;;;27.65;45.95;100931.48;107670;275;113163;-55
2023/09/29 10:21:50;;;;;;;;;;;;;;;27.60;46.11;100930.60;107673;275;95251;-53
2023/09/29 10:24:28;;;;;;;;;;;;;;;27.59;46.08;100929.66;107718;275;98031;-54
2023/09/29 10:27:11;;;;;;;;;;;;;;;27.53;45.75;100927.70;107741;275;119867;-54
2023/09/29 10:29:53;;;;;;;;;;;;;;;27.47;45.56;100924.30;107718;275;105862;-57
2023/09/29 10:32:34;;;;;;;;;;;;;;;27.41;45.29;100926.11;107639;275;113502;-55
2023/09/29 10:35:11;;;;;;;;;;;;;;;27.27;45.59;100925.91;107700;275;92216;-57
2023/09/29 10:37:54;;;;;;;;;;;;;;;27.26;45.50;100926.02;107743;275;98035;-56
2023/09/29 10:40:33;;;;;;;;;;;;;;;27.26;45.26;100927.35;107690;276;120392;-54
2023/09/29 10:43:05;;;;;;;;;;;;;;;27.20;45.13;100923.56;107738;275;104485;-55
2023/09/29 10:45:45;;;;;;;;;;;;;;;27.17;45.08;100915.87;107688;275;114425;-59
2023/09/29 10:48:23;;;;;;;;;;;;;;;27.20;44.83;100913.40;107752;275;93460;-59
2023/09/29 10:50:55;;;;;;;;;;;;;;;27.18;45.04;100910.59;107741;275;97987;-56
2023/09/29 10:53:44;;;;;;;;;;;;;;;27.13;45.06;100907.61;107676;275;121068;-56
2023/09/29 10:56:24;;;;;;;;;;;;;;;27.15;44.53;100902.61;107627;275;105513;-60
2023/09/29 10:58:59;;;;;;;;;;;;;;;27.18;44.95;100899.71;107671;275;114425;-59
2023/09/29 11:01:37;;;;;;;;;;;;;;;27.20;44.57;100897.09;107679;275;94717;-55
2023/09/29 11:04:14;;;;;;;;;;;;;;;27.21;44.72;100895.36;107667;275;95589;-54
2023/09/29 11:06:50;;;;;;;;;;;;;;;27.24;44.47;100893.96;107701;275;120613;-56
2023/09/29 11:09:31;;;;;;;;;;;;;;;27.22;43.82;100894.30;107465;275;105227;-56
2023/09/29 11:12:04;;;;;;;;;;;;;;;27.18;43.57;100890.23;107724;275;113427;-55
2023/09/29 11:14:42;;;;;;;;;;;;;;;27.13;43.47;100888.81;107736;275;93955;-55
2023/09/29 11:17:18;;;;;;;;;;;;;;;27.13;43.21;100884.05;107691;275;96983;-57
2023/09/29 11:19:54;;;;;;;;;;;;;;;27.11;43.47;100878.13;107695;275;120583;-57
2023/09/29 11:22:26;;;;;;;;;;;;;;;27.07;43.19;100877.31;107695;275;103235;-58
2023/09/29 11:24:56;;;;;;;;;;;;;;;27.01;42.90;100874.13;107683;275;114592;-56
2023/09/29 11:27:35;;;;;;;;;;;;;;;26.98;43.10;100874.24;107520;275;93637;-57
2023/09/29 11:30:10;;;;;;;;;;;;;;;26.94;42.78;100866.79;107717;275;97902;-55
2023/09/29 11:32:50;;;;;;;;;;;;;;;26.94;42.96;100863.02;107674;275;121098;-55
2023/09/29 11:35:27;;;;;;;;;;;;;;;26.94;42.53;100859.58;107651;275;103596;-55
2023/09/29 11:38:01;;;;;;;;;;;;;;;26.91;42.49;100853.83;107660;275;114213;-55
2023/09/29 11:40:38;;;;;;;;;;;;;;;26.91;42.29;100846.79;107638;275;94682;-55
2023/09/29 11:43:16;;;;;;;;;;;;;;;26.90;42.19;100852.45;107644;275;97963;-56
2023/09/29 11:45:52;;;;;;;;;;;;;;;26.87;42.38;100850.48;107675;275;120763;-54
2023/09/29 11:48:29;;;;;;;;;;;;;;;26.82;41.82;100849.90;107662;275;104780;-54
2023/09/29 11:51:05;;;;;;;;;;;;;;;26.76;41.90;100843.30;107701;275;114600;-58
2023/09/29 11:53:38;;;;;;;;;;;;;;;26.75;41.98;100840.92;107694;275;94805;-57
2023/09/29 11:56:09;;;;;;;;;;;;;;;26.70;40.84;100838.05;107756;275;96784;-54
2023/09/29 11:58:45;;;;;;;;;;;;;;;26.64;40.75;100831.98;107110;275;602990;-54
2023/09/29 12:01:20;;;;;;;;;;;;;;;26.63;41.19;100831.83;107745;275;105795;-54
2023/09/29 12:03:57;;;;;;;;;;;;;;;26.61;41.21;100826.52;107494;275;112807;-55
2023/09/29 12:06:39;;;;;;;;;;;;;;;26.56;41.18;100827.22;107713;275;94932;-55
2023/09/29 12:09:18;;;;;;;;;;;;;;;26.49;40.45;100822.36;107643;275;95723;-55
2023/09/29 12:11:52;;;;;;;;;;;;;;;26.42;40.96;100814.58;107695;275;120840;-57
2023/09/29 12:14:30;;;;;;;;;;;;;;;26.38;40.84;100817.15;107676;275;104123;-57
2023/09/29 12:17:04;;;;;;;;;;;;;;;26.33;40.56;100814.11;107701;275;114479;-55
2023/09/29 12:19:43;;;;;;;;;;;;;;;26.34;40.89;100811.01;107668;275;95398;-55
2023/09/29 12:22:22;;;;;;;;;;;;;;;26.36;40.97;100812.89;107819;275;98786;-60
2023/09/29 12:24:54;;;;;;;;;;;;;;;26.32;39.99;100805.27;107849;275;119349;-60
2023/09/29 12:27:26;;;;;;;;;;;;;;;26.23;39.68;100803.08;107614;275;103312;-57
2023/09/29 12:29:56;;;;;;;;;;;;;;;26.19;40.13;100802.92;107676;275;111881;-58
2023/09/29 12:32:35;;;;;;;;;;;;;;;26.16;40.32;100802.66;107808;275;92402;-60
2023/09/29 12:35:06;;;;;;;;;;;;;;;26.13;40.48;100795.73;107791;275;96922;-58
2023/09/29 12:37:43;;;;;;;;;;;;;;;26.11;40.42;100792.39;107679;275;120095;-57
2023/09/29 12:40:21;;;;;;;;;;;;;;;26.10;40.72;100789.41;107504;275;105880;-58
2023/09/29 12:42:54;;;;;;;;;;;;;;;26.08;40.21;100792.15;107676;275;112639;-58
2023/09/29 12:45:28;;;;;;;;;;;;;;;26.04;40.43;100792.70;107560;275;94014;-58
2023/09/29 12:48:04;;;;;;;;;;;;;;;26.02;40.95;100789.89;107701;276;98467;-57
2023/09/29 12:50:40;;;;;;;;;;;;;;;26.00;40.86;100786.69;107555;275;121118;-59
2023/09/29 12:53:14;;;;;;;;;;;;;;;25.99;41.08;100782.98;107670;275;105396;-59
2023/09/29 12:55:50;;;;;;;;;;;;;;;25.99;41.19;100778.15;107647;275;114868;-58
2023/09/29 12:58:21;;;;;;;;;;;;;;;26.00;41.32;100781.30;107649;275;94554;-58
2023/09/29 13:00:54;;;;;;;;;;;;;;;26.01;41.47;100777.10;107702;275;98425;-59
2023/09/29 13:03:33;;;;;;;;;;;;;;;25.95;41.49;100772.13;107531;275;120219;-59
2023/09/29 13:06:10;;;;;;;;;;;;;;;25.92;41.37;100771.59;107487;275;104186;-58
2023/09/29 13:08:43;;;;;;;;;;;;;;;25.87;40.93;100768.05;107691;275;113918;-57
2023/09/29 13:11:18;;;;;;;;;;;;;;;25.84;41.25;100772.11;107719;275;94412;-58
2023/09/29 13:14:01;;;;;;;;;;;;;;;25.81;41.08;100769.13;107723;275;97774;-58
2023/09/29 13:16:37;;;;;;;;;;;;;;;25.75;40.88;100768.97;107683;275;121931;-60